createdAt,value
2018-06-24T00:00:38.042Z,52.10
2018-06-24T00:05:43.128Z,52.10
2018-06-24T00:10:48.311Z,52.10
2018-06-24T00:15:53.569Z,52.20
2018-06-24T00:20:58.770Z,52.00
2018-06-24T00:26:03.787Z,52.00
2018-06-24T00:31:09.043Z,52.10
2018-06-24T00:36:14.174Z,52.20
2018-06-24T00:41:19.309Z,52.10
2018-06-24T00:46:24.338Z,52.10
2018-06-24T00:51:29.507Z,52.10
2018-06-24T00:56:34.659Z,52.10
2018-06-24T01:01:39.801Z,52.20
2018-06-24T01:06:46.050Z,52.20
2018-06-24T01:11:51.279Z,52.20
2018-06-24T01:16:56.390Z,52.20
2018-06-24T01:22:01.540Z,52.20
2018-06-24T01:27:06.392Z,52.20
2018-06-24T01:32:11.540Z,52.10
2018-06-24T01:37:16.683Z,52.20
2018-06-24T01:42:21.640Z,52.30
2018-06-24T01:47:26.876Z,52.20
2018-06-24T01:52:31.866Z,52.10
2018-06-24T01:57:36.991Z,52.10
2018-06-24T02:02:42.110Z,52.20
2018-06-24T02:07:47.245Z,52.10
2018-06-24T02:12:52.399Z,52.10
2018-06-24T02:17:57.498Z,52.10
2018-06-24T02:23:02.452Z,52.10
2018-06-24T02:28:07.392Z,52.10
2018-06-24T02:33:13.000Z,52.10
2018-06-24T02:38:18.105Z,52.10
2018-06-24T02:43:23.040Z,52.20
2018-06-24T02:48:28.267Z,52.10
2018-06-24T02:53:33.653Z,52.10
2018-06-24T02:58:38.981Z,52.20
2018-06-24T03:03:44.222Z,52.20
2018-06-24T03:08:49.586Z,52.10
2018-06-24T03:13:54.622Z,52.20
2018-06-24T03:18:59.738Z,53.30
2018-06-24T03:24:04.705Z,52.20
2018-06-24T03:29:09.694Z,52.10
2018-06-24T03:34:14.885Z,52.10
2018-06-24T03:39:19.988Z,52.10
2018-06-24T03:44:25.150Z,52.20
2018-06-24T03:49:30.306Z,52.10
2018-06-24T03:54:35.444Z,52.20
2018-06-24T03:59:40.823Z,52.30
2018-06-24T04:04:46.059Z,52.30
2018-06-24T04:09:51.048Z,52.40
2018-06-24T04:14:56.374Z,52.30
2018-06-24T04:20:01.414Z,52.30
2018-06-24T04:25:06.588Z,52.30
2018-06-24T04:30:11.513Z,52.40
2018-06-24T04:35:16.632Z,52.40
2018-06-24T04:40:21.578Z,52.40
2018-06-24T04:45:26.423Z,52.30
2018-06-24T04:50:31.575Z,52.30
2018-06-24T04:55:36.739Z,52.30
2018-06-24T05:00:41.768Z,52.30
2018-06-24T05:05:46.841Z,52.20
2018-06-24T05:10:51.864Z,52.30
2018-06-24T05:15:56.871Z,52.20
2018-06-24T05:21:02.093Z,52.40
2018-06-24T05:26:07.128Z,52.20
2018-06-24T05:31:12.304Z,52.10
2018-06-24T05:36:17.425Z,52.10
2018-06-24T05:41:22.501Z,52.20
2018-06-24T05:46:27.513Z,52.10
2018-06-24T05:51:32.632Z,52.10
2018-06-24T05:56:37.749Z,52.00
2018-06-24T06:01:42.788Z,51.90
2018-06-24T06:06:47.730Z,52.10
2018-06-24T06:11:52.922Z,51.90
2018-06-24T06:16:57.950Z,52.00
2018-06-24T06:22:03.098Z,51.90
2018-06-24T06:27:08.340Z,51.90
2018-06-24T06:32:13.505Z,51.90
2018-06-24T06:37:18.772Z,51.90
2018-06-24T06:42:23.992Z,51.70
2018-06-24T06:47:29.321Z,51.70
2018-06-24T06:52:34.319Z,51.70
2018-06-24T06:57:39.596Z,51.70
2018-06-24T07:02:44.732Z,51.60
2018-06-24T07:07:49.887Z,51.40
2018-06-24T07:12:55.123Z,51.30
2018-06-24T07:18:00.151Z,51.40
2018-06-24T07:23:05.197Z,51.10
2018-06-24T07:28:10.299Z,51.30
2018-06-24T07:33:16.005Z,51.30
2018-06-24T07:38:21.090Z,51.30
2018-06-24T07:43:26.045Z,51.40
2018-06-24T07:48:31.201Z,51.30
2018-06-24T07:53:36.386Z,51.30
2018-06-24T07:58:41.757Z,51.20
2018-06-24T08:03:47.134Z,51.00
2018-06-24T08:08:52.340Z,51.20
2018-06-24T08:13:57.491Z,51.30
2018-06-24T08:19:02.836Z,51.10
2018-06-24T08:24:07.846Z,51.00
2018-06-24T08:29:12.738Z,50.90
2018-06-24T08:34:17.884Z,50.90
2018-06-24T08:39:23.036Z,50.50
2018-06-24T08:44:28.236Z,50.50
2018-06-24T08:49:33.460Z,50.50
2018-06-24T08:54:38.894Z,50.60
2018-06-24T08:59:43.994Z,50.60
2018-06-24T09:04:49.107Z,50.60
2018-06-24T09:09:54.622Z,50.60
2018-06-24T09:14:59.742Z,50.60
2018-06-24T09:20:05.235Z,50.60
2018-06-24T09:25:10.433Z,50.50
2018-06-24T09:30:15.581Z,50.30
2018-06-24T09:35:20.617Z,50.50
2018-06-24T09:40:25.565Z,50.60
2018-06-24T09:45:30.514Z,50.00
2018-06-24T09:50:35.449Z,50.50
2018-06-24T09:55:40.486Z,50.50
2018-06-24T10:00:45.613Z,50.60
2018-06-24T10:05:50.849Z,50.00
2018-06-24T10:10:55.815Z,49.90
2018-06-24T10:16:01.182Z,49.70
2018-06-24T10:21:06.560Z,50.00
2018-06-24T10:26:11.652Z,49.80
2018-06-24T10:31:16.632Z,49.70
2018-06-24T10:36:21.557Z,50.00
2018-06-24T10:41:26.799Z,49.60
2018-06-24T10:46:32.065Z,49.50
2018-06-24T10:51:37.221Z,49.00
2018-06-24T10:56:42.649Z,49.60
2018-06-24T11:01:47.699Z,49.50
2018-06-24T11:06:52.688Z,49.30
2018-06-24T11:11:58.784Z,49.30
2018-06-24T11:17:03.886Z,49.40
2018-06-24T11:22:09.110Z,49.30
2018-06-24T11:27:14.349Z,49.30
2018-06-24T11:32:19.419Z,49.00
2018-06-24T11:37:24.746Z,49.20
2018-06-24T11:42:29.821Z,49.20
2018-06-24T11:47:35.050Z,49.10
2018-06-24T11:52:40.136Z,49.30
2018-06-24T11:57:45.135Z,50.50
2018-06-24T12:02:50.422Z,49.50
2018-06-24T12:07:55.428Z,49.20
2018-06-24T12:13:00.986Z,49.20
2018-06-24T12:18:06.048Z,49.30
2018-06-24T12:23:11.179Z,49.40
2018-06-24T12:28:16.334Z,49.30
2018-06-24T12:33:21.390Z,49.20
2018-06-24T12:38:26.515Z,49.20
2018-06-24T12:43:31.485Z,49.10
2018-06-24T12:48:36.658Z,49.10
2018-06-24T12:53:41.684Z,49.00
2018-06-24T12:58:47.012Z,48.80
2018-06-24T13:03:52.018Z,48.90
2018-06-24T13:08:57.143Z,49.00
2018-06-24T13:14:02.329Z,48.80
2018-06-24T13:19:07.518Z,48.90
2018-06-24T13:29:17.526Z,48.90
2018-06-24T13:34:22.956Z,50.10
2018-06-24T13:39:28.088Z,48.90
2018-06-24T13:44:33.114Z,48.90
2018-06-24T13:49:38.392Z,48.90
2018-06-24T13:54:43.404Z,49.00
2018-06-24T13:59:48.626Z,48.90
2018-06-24T14:04:53.713Z,48.90
2018-06-24T14:09:58.880Z,48.80
2018-06-24T14:15:04.094Z,48.80
2018-06-24T14:20:09.232Z,48.90
2018-06-24T14:25:14.730Z,48.70
2018-06-24T14:30:19.866Z,48.60
2018-06-24T14:35:25.113Z,48.70
2018-06-24T14:40:30.315Z,48.60
2018-06-24T14:45:35.505Z,48.50
2018-06-24T14:50:40.698Z,48.40
2018-06-24T14:55:45.642Z,49.30
2018-06-24T15:00:50.919Z,48.50
2018-06-24T15:05:56.104Z,48.60
2018-06-24T15:11:01.096Z,48.60
2018-06-24T15:16:07.378Z,48.60
2018-06-24T15:21:12.222Z,48.50
2018-06-24T15:26:17.179Z,48.60
2018-06-24T15:31:22.100Z,48.60
2018-06-24T15:36:27.070Z,48.70
2018-06-24T15:41:32.073Z,48.60
2018-06-24T15:46:37.537Z,48.70
2018-06-24T15:51:42.671Z,48.80
2018-06-24T15:56:47.944Z,49.70
2018-06-24T16:01:53.457Z,48.90
2018-06-24T16:06:58.504Z,50.00
2018-06-24T16:12:03.496Z,49.50
2018-06-24T16:17:08.507Z,49.40
2018-06-24T16:22:13.564Z,49.60
2018-06-24T16:27:18.664Z,49.80
2018-06-24T16:32:23.745Z,50.00
2018-06-24T16:37:29.755Z,50.30
2018-06-24T16:42:34.923Z,50.30
2018-06-24T16:47:40.180Z,50.70
2018-06-24T16:52:45.556Z,52.00
2018-06-24T16:57:51.862Z,50.80
2018-06-24T17:02:56.840Z,50.80
2018-06-24T17:08:02.924Z,50.80
2018-06-24T17:13:08.037Z,50.80
2018-06-24T17:18:13.166Z,50.80
2018-06-24T17:23:18.160Z,50.90
2018-06-24T17:28:23.531Z,51.30
2018-06-24T17:33:28.903Z,51.20
2018-06-24T17:38:34.281Z,51.30
2018-06-24T17:43:41.786Z,51.60
2018-06-24T17:48:46.773Z,51.70
2018-06-24T17:53:51.980Z,52.00
2018-06-24T17:58:57.070Z,51.90
2018-06-24T18:04:02.022Z,51.90
2018-06-24T18:09:09.398Z,52.00
2018-06-24T18:14:14.594Z,52.10
2018-06-24T18:19:19.878Z,52.20
2018-06-24T18:24:25.018Z,52.20
2018-06-24T18:29:31.452Z,52.20
2018-06-24T18:34:36.441Z,52.50
2018-06-24T18:39:41.787Z,52.30
2018-06-24T18:44:46.681Z,52.40
2018-06-24T18:49:51.738Z,52.40
2018-06-24T18:54:56.872Z,52.40
2018-06-24T19:00:02.317Z,52.40
2018-06-24T19:05:07.752Z,52.50
2018-06-24T19:10:12.891Z,52.60
2018-06-24T19:15:18.726Z,52.60
2018-06-24T19:20:23.726Z,52.60
2018-06-24T19:25:28.619Z,52.90
2018-06-24T19:30:33.636Z,52.90
2018-06-24T19:35:38.299Z,53.00
2018-06-24T19:40:43.533Z,53.00
2018-06-24T19:45:48.400Z,53.10
2018-06-24T19:50:54.524Z,53.10
2018-06-24T19:55:59.637Z,53.20
2018-06-24T20:01:04.702Z,53.30
2018-06-24T20:06:10.238Z,52.90
2018-06-24T20:11:15.415Z,53.20
2018-06-24T20:16:20.509Z,53.30
2018-06-24T20:21:25.508Z,53.30
2018-06-24T20:26:30.809Z,53.50
2018-06-24T20:31:36.419Z,53.50
2018-06-24T20:36:42.096Z,53.50
2018-06-24T20:41:47.093Z,53.50
2018-06-24T20:46:52.271Z,53.90
2018-06-24T20:51:57.460Z,53.60
2018-06-24T20:57:02.489Z,53.70
2018-06-24T21:02:07.654Z,53.70
2018-06-24T21:07:12.636Z,53.70
2018-06-24T21:12:17.590Z,52.80
2018-06-24T21:17:22.802Z,53.80
2018-06-24T21:22:27.973Z,53.80
2018-06-24T21:27:33.297Z,53.90
2018-06-24T21:32:38.516Z,55.10
2018-06-24T21:37:43.461Z,53.90
2018-06-24T21:42:48.436Z,54.10
2018-06-24T21:47:53.389Z,53.90
2018-06-24T21:52:58.574Z,54.10
2018-06-24T21:58:03.504Z,54.10
2018-06-24T22:03:08.505Z,54.10
2018-06-24T22:08:13.666Z,55.40
2018-06-24T22:13:18.802Z,54.20
2018-06-24T22:18:23.720Z,54.10
2018-06-24T22:23:28.740Z,54.30
2018-06-24T22:28:33.907Z,54.40
2018-06-24T22:33:39.021Z,54.30
2018-06-24T22:38:44.390Z,54.40
2018-06-24T22:43:49.583Z,54.30
2018-06-24T22:48:54.662Z,54.30
2018-06-24T22:53:59.826Z,54.40
2018-06-24T22:59:15.673Z,54.40
2018-06-24T23:04:20.752Z,54.40
2018-06-24T23:09:25.595Z,54.40
2018-06-24T23:14:30.696Z,54.60
2018-06-24T23:19:35.902Z,54.50
2018-06-24T23:24:40.981Z,54.50
2018-06-24T23:29:45.930Z,54.40
2018-06-24T23:34:51.071Z,54.40
2018-06-24T23:39:56.049Z,54.40
2018-06-24T23:45:01.323Z,54.40
2018-06-24T23:50:06.319Z,54.40
2018-06-24T23:55:11.415Z,54.40
